sensor_id;sensor_type;location;lat;lon;timestamp;P1;durP1;ratioP1;P2;durP2;ratioP2
1879;SDS011;49285;49.002;8.390;2023-04-15T00:01:04;7.30;;;4.10;;
1879;SDS011;49285;49.002;8.390;2023-04-15T00:03:29;6.77;;;4.40;;
1879;SDS011;49285;49.002;8.390;2023-04-15T00:05:56;9.17;;;4.60;;
1879;SDS011;49285;49.002;8.390;2023-04-15T00:08:22;6.40;;;4.30;;
1879;SDS011;49285;49.002;8.390;2023-04-15T00:10:48;5.63;;;4.20;;
1879;SDS011;49285;49.002;8.390;2023-04-15T00:13:14;9.43;;;5.60;;
1879;SDS011;49285;49.002;8.390;2023-04-15T00:15:40;6.60;;;4.70;;
1879;SDS011;49285;49.002;8.390;2023-04-15T00:18:06;8.77;;;6.07;;
1879;SDS011;49285;49.002;8.390;2023-04-15T00:20:33;9.63;;;7.30;;
1879;SDS011;49285;49.002;8.390;2023-04-15T00:22:59;12.00;;;7.77;;
1879;SDS011;49285;49.002;8.390;2023-04-15T00:25:25;11.07;;;9.00;;
1879;SDS011;49285;49.002;8.390;2023-04-15T00:27:51;8.93;;;7.53;;
1879;SDS011;49285;49.002;8.390;2023-04-15T00:30:16;9.60;;;7.87;;
1879;SDS011;49285;49.002;8.390;2023-04-15T00:32:42;9.17;;;7.73;;
1879;SDS011;49285;49.002;8.390;2023-04-15T00:35:08;9.13;;;8.13;;
1879;SDS011;49285;49.002;8.390;2023-04-15T00:37:34;11.27;;;8.53;;
1879;SDS011;49285;49.002;8.390;2023-04-15T00:40:00;11.07;;;8.07;;
1879;SDS011;49285;49.002;8.390;2023-04-15T00:42:29;13.57;;;7.90;;
1879;SDS011;49285;49.002;8.390;2023-04-15T00:44:55;11.27;;;8.10;;
1879;SDS011;49285;49.002;8.390;2023-04-15T00:47:21;9.67;;;7.83;;
1879;SDS011;49285;49.002;8.390;2023-04-15T00:49:47;8.87;;;7.00;;
1879;SDS011;49285;49.002;8.390;2023-04-15T00:52:12;12.07;;;6.90;;
1879;SDS011;49285;49.002;8.390;2023-04-15T00:54:38;9.23;;;7.90;;
1879;SDS011;49285;49.002;8.390;2023-04-15T00:57:04;10.57;;;6.80;;
1879;SDS011;49285;49.002;8.390;2023-04-15T00:59:31;9.47;;;7.53;;
1879;SDS011;49285;49.002;8.390;2023-04-15T01:01:58;11.77;;;8.10;;
1879;SDS011;49285;49.002;8.390;2023-04-15T01:04:24;12.47;;;8.27;;
1879;SDS011;49285;49.002;8.390;2023-04-15T01:06:49;10.67;;;8.40;;
1879;SDS011;49285;49.002;8.390;2023-04-15T01:09:16;6.77;;;6.07;;
1879;SDS011;49285;49.002;8.390;2023-04-15T01:11:42;9.30;;;6.60;;
1879;SDS011;49285;49.002;8.390;2023-04-15T01:14:08;7.70;;;5.63;;
1879;SDS011;49285;49.002;8.390;2023-04-15T01:16:35;7.30;;;5.43;;
1879;SDS011;49285;49.002;8.390;2023-04-15T01:19:04;6.50;;;5.43;;
1879;SDS011;49285;49.002;8.390;2023-04-15T01:21:33;8.10;;;5.53;;
1879;SDS011;49285;49.002;8.390;2023-04-15T01:24:02;6.83;;;5.20;;
1879;SDS011;49285;49.002;8.390;2023-04-15T01:26:32;8.37;;;5.77;;
1879;SDS011;49285;49.002;8.390;2023-04-15T01:28:58;7.10;;;6.20;;
1879;SDS011;49285;49.002;8.390;2023-04-15T01:31:24;7.93;;;5.40;;
1879;SDS011;49285;49.002;8.390;2023-04-15T01:33:49;8.87;;;6.17;;
1879;SDS011;49285;49.002;8.390;2023-04-15T01:36:15;7.27;;;4.93;;
1879;SDS011;49285;49.002;8.390;2023-04-15T01:38:41;7.30;;;5.40;;
1879;SDS011;49285;49.002;8.390;2023-04-15T01:41:07;8.10;;;5.60;;
1879;SDS011;49285;49.002;8.390;2023-04-15T01:43:33;9.73;;;4.93;;
1879;SDS011;49285;49.002;8.390;2023-04-15T01:46:01;6.30;;;5.27;;
1879;SDS011;49285;49.002;8.390;2023-04-15T01:48:27;8.43;;;5.43;;
1879;SDS011;49285;49.002;8.390;2023-04-15T01:50:53;12.03;;;7.27;;
1879;SDS011;49285;49.002;8.390;2023-04-15T01:53:21;10.07;;;6.63;;
1879;SDS011;49285;49.002;8.390;2023-04-15T01:55:47;7.43;;;6.37;;
1879;SDS011;49285;49.002;8.390;2023-04-15T01:58:12;10.13;;;7.50;;
1879;SDS011;49285;49.002;8.390;2023-04-15T02:00:39;11.57;;;8.40;;
1879;SDS011;49285;49.002;8.390;2023-04-15T02:03:05;10.50;;;6.13;;
1879;SDS011;49285;49.002;8.390;2023-04-15T02:05:30;8.60;;;6.30;;
1879;SDS011;49285;49.002;8.390;2023-04-15T02:07:56;8.80;;;6.20;;
1879;SDS011;49285;49.002;8.390;2023-04-15T02:10:22;5.83;;;5.23;;
1879;SDS011;49285;49.002;8.390;2023-04-15T02:12:47;6.47;;;5.10;;
1879;SDS011;49285;49.002;8.390;2023-04-15T02:15:13;10.20;;;4.83;;
1879;SDS011;49285;49.002;8.390;2023-04-15T02:17:39;10.50;;;5.70;;
1879;SDS011;49285;49.002;8.390;2023-04-15T02:20:05;5.33;;;4.70;;
1879;SDS011;49285;49.002;8.390;2023-04-15T02:22:32;6.33;;;4.90;;
1879;SDS011;49285;49.002;8.390;2023-04-15T02:24:58;10.57;;;8.60;;
1879;SDS011;49285;49.002;8.390;2023-04-15T02:27:24;10.80;;;7.63;;
1879;SDS011;49285;49.002;8.390;2023-04-15T02:29:49;10.60;;;8.03;;
1879;SDS011;49285;49.002;8.390;2023-04-15T02:32:15;9.40;;;8.40;;
1879;SDS011;49285;49.002;8.390;2023-04-15T02:34:41;13.20;;;9.30;;
1879;SDS011;49285;49.002;8.390;2023-04-15T02:37:10;11.57;;;7.27;;
1879;SDS011;49285;49.002;8.390;2023-04-15T02:39:36;9.90;;;7.60;;
1879;SDS011;49285;49.002;8.390;2023-04-15T02:42:02;10.27;;;7.03;;
1879;SDS011;49285;49.002;8.390;2023-04-15T02:44:29;10.10;;;6.80;;
1879;SDS011;49285;49.002;8.390;2023-04-15T02:46:56;11.93;;;6.90;;
1879;SDS011;49285;49.002;8.390;2023-04-15T02:49:23;12.67;;;6.80;;
1879;SDS011;49285;49.002;8.390;2023-04-15T02:51:49;9.50;;;7.10;;
1879;SDS011;49285;49.002;8.390;2023-04-15T02:54:15;8.47;;;6.20;;
1879;SDS011;49285;49.002;8.390;2023-04-15T02:56:42;11.70;;;7.23;;
1879;SDS011;49285;49.002;8.390;2023-04-15T02:59:07;8.53;;;6.47;;
1879;SDS011;49285;49.002;8.390;2023-04-15T03:01:33;8.03;;;6.50;;
1879;SDS011;49285;49.002;8.390;2023-04-15T03:03:58;10.73;;;7.00;;
1879;SDS011;49285;49.002;8.390;2023-04-15T03:06:24;10.70;;;7.37;;
1879;SDS011;49285;49.002;8.390;2023-04-15T03:08:50;10.57;;;6.83;;
1879;SDS011;49285;49.002;8.390;2023-04-15T03:11:15;8.63;;;6.93;;
1879;SDS011;49285;49.002;8.390;2023-04-15T03:13:42;10.17;;;6.83;;
1879;SDS011;49285;49.002;8.390;2023-04-15T03:16:08;12.30;;;7.57;;
1879;SDS011;49285;49.002;8.390;2023-04-15T03:18:34;11.60;;;6.87;;
1879;SDS011;49285;49.002;8.390;2023-04-15T03:21:00;12.87;;;6.90;;
1879;SDS011;49285;49.002;8.390;2023-04-15T03:23:26;10.17;;;7.30;;
1879;SDS011;49285;49.002;8.390;2023-04-15T03:25:52;9.03;;;7.07;;
1879;SDS011;49285;49.002;8.390;2023-04-15T03:28:19;13.20;;;7.50;;
1879;SDS011;49285;49.002;8.390;2023-04-15T03:30:45;9.57;;;7.03;;
1879;SDS011;49285;49.002;8.390;2023-04-15T03:33:11;12.63;;;7.50;;
1879;SDS011;49285;49.002;8.390;2023-04-15T03:35:36;11.70;;;7.77;;
1879;SDS011;49285;49.002;8.390;2023-04-15T03:38:02;8.77;;;7.03;;
1879;SDS011;49285;49.002;8.390;2023-04-15T03:40:27;8.93;;;6.80;;
1879;SDS011;49285;49.002;8.390;2023-04-15T03:42:53;8.50;;;6.87;;
1879;SDS011;49285;49.002;8.390;2023-04-15T03:45:19;12.67;;;6.53;;
1879;SDS011;49285;49.002;8.390;2023-04-15T03:47:44;11.87;;;7.77;;
1879;SDS011;49285;49.002;8.390;2023-04-15T03:50:10;9.20;;;6.00;;
1879;SDS011;49285;49.002;8.390;2023-04-15T03:52:36;8.77;;;6.47;;
1879;SDS011;49285;49.002;8.390;2023-04-15T03:55:02;11.63;;;7.03;;
1879;SDS011;49285;49.002;8.390;2023-04-15T03:57:28;6.97;;;5.63;;
1879;SDS011;49285;49.002;8.390;2023-04-15T03:59:53;9.60;;;6.30;;
1879;SDS011;49285;49.002;8.390;2023-04-15T04:02:19;9.97;;;6.97;;
1879;SDS011;49285;49.002;8.390;2023-04-15T04:04:44;7.50;;;6.53;;
1879;SDS011;49285;49.002;8.390;2023-04-15T04:07:19;10.60;;;7.10;;
1879;SDS011;49285;49.002;8.390;2023-04-15T04:09:47;8.53;;;6.67;;
1879;SDS011;49285;49.002;8.390;2023-04-15T04:12:12;8.83;;;6.20;;
1879;SDS011;49285;49.002;8.390;2023-04-15T04:14:38;11.03;;;7.23;;
1879;SDS011;49285;49.002;8.390;2023-04-15T04:17:04;11.77;;;7.70;;
1879;SDS011;49285;49.002;8.390;2023-04-15T04:19:29;11.13;;;7.30;;
1879;SDS011;49285;49.002;8.390;2023-04-15T04:21:55;7.97;;;6.47;;
1879;SDS011;49285;49.002;8.390;2023-04-15T04:24:20;9.03;;;7.10;;
1879;SDS011;49285;49.002;8.390;2023-04-15T04:26:46;11.53;;;7.53;;
1879;SDS011;49285;49.002;8.390;2023-04-15T04:29:11;18.23;;;7.30;;
1879;SDS011;49285;49.002;8.390;2023-04-15T04:31:37;10.33;;;6.37;;
1879;SDS011;49285;49.002;8.390;2023-04-15T04:34:03;13.33;;;7.53;;
1879;SDS011;49285;49.002;8.390;2023-04-15T04:36:28;10.10;;;6.80;;
1879;SDS011;49285;49.002;8.390;2023-04-15T04:38:54;8.57;;;6.60;;
1879;SDS011;49285;49.002;8.390;2023-04-15T04:41:20;10.00;;;6.90;;
1879;SDS011;49285;49.002;8.390;2023-04-15T04:43:45;12.50;;;6.97;;
1879;SDS011;49285;49.002;8.390;2023-04-15T04:46:11;8.40;;;6.20;;
1879;SDS011;49285;49.002;8.390;2023-04-15T04:48:37;6.83;;;6.13;;
1879;SDS011;49285;49.002;8.390;2023-04-15T04:51:03;10.10;;;5.80;;
1879;SDS011;49285;49.002;8.390;2023-04-15T04:53:29;10.10;;;6.83;;
1879;SDS011;49285;49.002;8.390;2023-04-15T04:55:55;8.67;;;6.67;;
1879;SDS011;49285;49.002;8.390;2023-04-15T04:58:20;10.30;;;6.40;;
1879;SDS011;49285;49.002;8.390;2023-04-15T05:00:46;7.10;;;5.53;;
1879;SDS011;49285;49.002;8.390;2023-04-15T05:03:11;7.43;;;5.70;;
1879;SDS011;49285;49.002;8.390;2023-04-15T05:05:37;11.17;;;7.10;;
1879;SDS011;49285;49.002;8.390;2023-04-15T05:08:05;12.53;;;7.10;;
1879;SDS011;49285;49.002;8.390;2023-04-15T05:10:31;9.10;;;6.50;;
1879;SDS011;49285;49.002;8.390;2023-04-15T05:12:56;14.40;;;7.00;;
1879;SDS011;49285;49.002;8.390;2023-04-15T05:15:22;9.93;;;6.40;;
1879;SDS011;49285;49.002;8.390;2023-04-15T05:17:48;11.77;;;6.03;;
1879;SDS011;49285;49.002;8.390;2023-04-15T05:20:13;8.10;;;6.17;;
1879;SDS011;49285;49.002;8.390;2023-04-15T05:22:39;7.60;;;5.53;;
1879;SDS011;49285;49.002;8.390;2023-04-15T05:25:05;10.23;;;5.17;;
1879;SDS011;49285;49.002;8.390;2023-04-15T05:27:31;6.83;;;5.00;;
1879;SDS011;49285;49.002;8.390;2023-04-15T05:29:56;8.60;;;5.70;;
1879;SDS011;49285;49.002;8.390;2023-04-15T05:32:22;7.27;;;5.40;;
1879;SDS011;49285;49.002;8.390;2023-04-15T05:34:48;5.53;;;4.67;;
1879;SDS011;49285;49.002;8.390;2023-04-15T05:37:13;6.47;;;4.50;;
1879;SDS011;49285;49.002;8.390;2023-04-15T05:39:39;5.47;;;4.80;;
1879;SDS011;49285;49.002;8.390;2023-04-15T05:42:05;7.63;;;5.20;;
1879;SDS011;49285;49.002;8.390;2023-04-15T05:44:30;7.70;;;5.53;;
1879;SDS011;49285;49.002;8.390;2023-04-15T05:46:56;6.40;;;5.17;;
1879;SDS011;49285;49.002;8.390;2023-04-15T05:49:22;7.27;;;5.63;;
1879;SDS011;49285;49.002;8.390;2023-04-15T05:51:47;6.73;;;5.17;;
1879;SDS011;49285;49.002;8.390;2023-04-15T05:54:13;5.93;;;4.97;;
1879;SDS011;49285;49.002;8.390;2023-04-15T05:56:39;9.10;;;5.47;;
1879;SDS011;49285;49.002;8.390;2023-04-15T05:59:05;8.37;;;5.57;;
1879;SDS011;49285;49.002;8.390;2023-04-15T06:01:30;6.10;;;5.20;;
1879;SDS011;49285;49.002;8.390;2023-04-15T06:03:58;6.37;;;4.67;;
1879;SDS011;49285;49.002;8.390;2023-04-15T06:06:24;8.00;;;4.80;;
1879;SDS011;49285;49.002;8.390;2023-04-15T06:08:51;9.43;;;4.47;;
1879;SDS011;49285;49.002;8.390;2023-04-15T06:11:16;7.57;;;5.20;;
1879;SDS011;49285;49.002;8.390;2023-04-15T06:13:42;7.53;;;5.07;;
1879;SDS011;49285;49.002;8.390;2023-04-15T06:16:08;10.07;;;5.70;;
1879;SDS011;49285;49.002;8.390;2023-04-15T06:18:33;9.00;;;5.63;;
1879;SDS011;49285;49.002;8.390;2023-04-15T06:20:59;7.70;;;5.70;;
1879;SDS011;49285;49.002;8.390;2023-04-15T06:23:24;9.07;;;5.53;;
1879;SDS011;49285;49.002;8.390;2023-04-15T06:25:50;7.20;;;4.97;;
1879;SDS011;49285;49.002;8.390;2023-04-15T06:28:15;8.40;;;5.03;;
1879;SDS011;49285;49.002;8.390;2023-04-15T06:30:41;5.60;;;4.73;;
1879;SDS011;49285;49.002;8.390;2023-04-15T06:33:07;7.03;;;5.77;;
1879;SDS011;49285;49.002;8.390;2023-04-15T06:35:32;8.47;;;5.90;;
1879;SDS011;49285;49.002;8.390;2023-04-15T06:37:58;8.40;;;5.53;;
1879;SDS011;49285;49.002;8.390;2023-04-15T06:40:24;9.20;;;6.20;;
1879;SDS011;49285;49.002;8.390;2023-04-15T06:42:50;8.70;;;6.17;;
1879;SDS011;49285;49.002;8.390;2023-04-15T06:45:15;7.77;;;5.53;;
1879;SDS011;49285;49.002;8.390;2023-04-15T06:47:41;9.73;;;5.90;;
1879;SDS011;49285;49.002;8.390;2023-04-15T06:50:07;12.57;;;6.30;;
1879;SDS011;49285;49.002;8.390;2023-04-15T06:52:34;6.70;;;5.70;;
1879;SDS011;49285;49.002;8.390;2023-04-15T06:55:00;7.30;;;5.50;;
1879;SDS011;49285;49.002;8.390;2023-04-15T06:57:26;10.37;;;5.90;;
1879;SDS011;49285;49.002;8.390;2023-04-15T06:59:52;9.90;;;6.07;;
1879;SDS011;49285;49.002;8.390;2023-04-15T07:02:18;12.00;;;6.10;;
1879;SDS011;49285;49.002;8.390;2023-04-15T07:04:44;8.53;;;5.73;;
1879;SDS011;49285;49.002;8.390;2023-04-15T07:07:10;6.83;;;5.80;;
1879;SDS011;49285;49.002;8.390;2023-04-15T07:09:36;8.20;;;5.43;;
1879;SDS011;49285;49.002;8.390;2023-04-15T07:12:02;6.60;;;5.43;;
1879;SDS011;49285;49.002;8.390;2023-04-15T07:14:28;7.33;;;5.63;;
1879;SDS011;49285;49.002;8.390;2023-04-15T07:16:54;11.70;;;5.20;;
1879;SDS011;49285;49.002;8.390;2023-04-15T07:19:20;5.53;;;4.93;;
1879;SDS011;49285;49.002;8.390;2023-04-15T07:21:46;6.20;;;4.77;;
1879;SDS011;49285;49.002;8.390;2023-04-15T07:24:11;5.73;;;4.20;;
1879;SDS011;49285;49.002;8.390;2023-04-15T07:26:40;6.17;;;4.67;;
1879;SDS011;49285;49.002;8.390;2023-04-15T07:29:06;6.67;;;4.50;;
1879;SDS011;49285;49.002;8.390;2023-04-15T07:31:31;7.73;;;4.30;;
1879;SDS011;49285;49.002;8.390;2023-04-15T07:33:57;6.13;;;5.10;;
1879;SDS011;49285;49.002;8.390;2023-04-15T07:36:23;6.67;;;5.40;;
1879;SDS011;49285;49.002;8.390;2023-04-15T07:38:49;11.63;;;4.90;;
1879;SDS011;49285;49.002;8.390;2023-04-15T07:41:15;6.70;;;5.23;;
1879;SDS011;49285;49.002;8.390;2023-04-15T07:43:41;6.57;;;4.70;;
1879;SDS011;49285;49.002;8.390;2023-04-15T07:46:07;5.20;;;4.10;;
1879;SDS011;49285;49.002;8.390;2023-04-15T07:48:32;6.20;;;4.20;;
1879;SDS011;49285;49.002;8.390;2023-04-15T07:50:58;8.00;;;5.43;;
1879;SDS011;49285;49.002;8.390;2023-04-15T07:53:24;8.80;;;4.50;;
1879;SDS011;49285;49.002;8.390;2023-04-15T07:55:50;6.93;;;4.07;;
1879;SDS011;49285;49.002;8.390;2023-04-15T07:58:16;7.03;;;4.30;;
1879;SDS011;49285;49.002;8.390;2023-04-15T08:00:41;8.77;;;4.30;;
1879;SDS011;49285;49.002;8.390;2023-04-15T08:03:07;5.87;;;3.70;;
1879;SDS011;49285;49.002;8.390;2023-04-15T08:05:33;5.50;;;4.57;;
1879;SDS011;49285;49.002;8.390;2023-04-15T08:07:58;8.77;;;4.63;;
1879;SDS011;49285;49.002;8.390;2023-04-15T08:10:24;12.07;;;4.77;;
1879;SDS011;49285;49.002;8.390;2023-04-15T08:12:49;10.00;;;4.10;;
1879;SDS011;49285;49.002;8.390;2023-04-15T08:15:18;9.73;;;4.53;;
1879;SDS011;49285;49.002;8.390;2023-04-15T08:17:44;4.50;;;3.97;;
1879;SDS011;49285;49.002;8.390;2023-04-15T08:20:10;9.67;;;4.30;;
1879;SDS011;49285;49.002;8.390;2023-04-15T08:22:37;13.67;;;9.20;;
1879;SDS011;49285;49.002;8.390;2023-04-15T08:25:03;7.63;;;5.63;;
1879;SDS011;49285;49.002;8.390;2023-04-15T08:27:29;7.13;;;5.00;;
1879;SDS011;49285;49.002;8.390;2023-04-15T08:29:55;7.00;;;5.53;;
1879;SDS011;49285;49.002;8.390;2023-04-15T08:32:20;7.70;;;5.40;;
1879;SDS011;49285;49.002;8.390;2023-04-15T08:34:47;7.13;;;5.10;;
1879;SDS011;49285;49.002;8.390;2023-04-15T08:37:12;5.83;;;4.80;;
1879;SDS011;49285;49.002;8.390;2023-04-15T08:39:38;15.97;;;5.50;;
1879;SDS011;49285;49.002;8.390;2023-04-15T08:42:05;9.33;;;5.50;;
1879;SDS011;49285;49.002;8.390;2023-04-15T08:44:35;10.60;;;5.07;;
1879;SDS011;49285;49.002;8.390;2023-04-15T08:47:02;6.63;;;4.77;;
1879;SDS011;49285;49.002;8.390;2023-04-15T08:49:31;8.77;;;4.97;;
1879;SDS011;49285;49.002;8.390;2023-04-15T08:51:57;9.10;;;4.93;;
1879;SDS011;49285;49.002;8.390;2023-04-15T08:54:24;7.13;;;4.87;;
1879;SDS011;49285;49.002;8.390;2023-04-15T08:56:51;6.40;;;5.37;;
1879;SDS011;49285;49.002;8.390;2023-04-15T08:59:17;16.60;;;5.80;;
1879;SDS011;49285;49.002;8.390;2023-04-15T09:01:45;10.27;;;6.03;;
1879;SDS011;49285;49.002;8.390;2023-04-15T09:04:12;8.33;;;6.00;;
1879;SDS011;49285;49.002;8.390;2023-04-15T09:06:38;7.00;;;5.60;;
1879;SDS011;49285;49.002;8.390;2023-04-15T09:09:05;9.17;;;5.93;;
1879;SDS011;49285;49.002;8.390;2023-04-15T09:11:30;7.33;;;5.40;;
1879;SDS011;49285;49.002;8.390;2023-04-15T09:13:56;7.77;;;5.57;;
1879;SDS011;49285;49.002;8.390;2023-04-15T09:16:22;8.60;;;6.07;;
1879;SDS011;49285;49.002;8.390;2023-04-15T09:18:48;7.67;;;5.20;;
1879;SDS011;49285;49.002;8.390;2023-04-15T09:21:14;10.00;;;5.97;;
1879;SDS011;49285;49.002;8.390;2023-04-15T09:23:52;6.70;;;5.53;;
1879;SDS011;49285;49.002;8.390;2023-04-15T09:26:29;7.23;;;6.57;;
1879;SDS011;49285;49.002;8.390;2023-04-15T09:29:02;7.70;;;4.80;;
1879;SDS011;49285;49.002;8.390;2023-04-15T09:31:32;7.20;;;5.70;;
1879;SDS011;49285;49.002;8.390;2023-04-15T09:33:58;5.60;;;5.10;;
1879;SDS011;49285;49.002;8.390;2023-04-15T09:36:23;10.60;;;6.30;;
1879;SDS011;49285;49.002;8.390;2023-04-15T09:38:53;11.23;;;5.93;;
1879;SDS011;49285;49.002;8.390;2023-04-15T09:41:23;8.50;;;5.50;;
1879;SDS011;49285;49.002;8.390;2023-04-15T09:43:49;10.87;;;6.00;;
1879;SDS011;49285;49.002;8.390;2023-04-15T09:46:15;6.83;;;6.13;;
1879;SDS011;49285;49.002;8.390;2023-04-15T09:48:41;7.80;;;6.00;;
1879;SDS011;49285;49.002;8.390;2023-04-15T09:51:06;6.77;;;6.10;;
1879;SDS011;49285;49.002;8.390;2023-04-15T09:53:33;11.90;;;6.40;;
1879;SDS011;49285;49.002;8.390;2023-04-15T09:56:00;6.17;;;5.57;;
1879;SDS011;49285;49.002;8.390;2023-04-15T09:58:29;9.50;;;6.10;;
1879;SDS011;49285;49.002;8.390;2023-04-15T10:00:57;11.17;;;6.40;;
1879;SDS011;49285;49.002;8.390;2023-04-15T10:03:28;10.00;;;6.40;;
1879;SDS011;49285;49.002;8.390;2023-04-15T10:05:55;9.37;;;6.40;;
1879;SDS011;49285;49.002;8.390;2023-04-15T10:08:23;8.40;;;6.13;;
1879;SDS011;49285;49.002;8.390;2023-04-15T10:10:53;8.50;;;5.97;;
1879;SDS011;49285;49.002;8.390;2023-04-15T10:13:19;7.70;;;6.53;;
1879;SDS011;49285;49.002;8.390;2023-04-15T10:15:51;9.93;;;7.10;;
1879;SDS011;49285;49.002;8.390;2023-04-15T10:18:22;9.53;;;5.63;;
1879;SDS011;49285;49.002;8.390;2023-04-15T10:20:50;11.87;;;6.90;;
1879;SDS011;49285;49.002;8.390;2023-04-15T10:23:17;8.93;;;6.67;;
1879;SDS011;49285;49.002;8.390;2023-04-15T10:25:44;7.63;;;6.73;;
1879;SDS011;49285;49.002;8.390;2023-04-15T10:28:10;8.03;;;6.43;;
1879;SDS011;49285;49.002;8.390;2023-04-15T10:30:36;7.83;;;6.60;;
1879;SDS011;49285;49.002;8.390;2023-04-15T10:33:03;12.97;;;6.60;;
1879;SDS011;49285;49.002;8.390;2023-04-15T10:35:30;10.07;;;7.20;;
1879;SDS011;49285;49.002;8.390;2023-04-15T10:37:57;7.07;;;6.37;;
1879;SDS011;49285;49.002;8.390;2023-04-15T10:40:29;11.33;;;8.10;;
1879;SDS011;49285;49.002;8.390;2023-04-15T10:43:01;9.57;;;7.13;;
1879;SDS011;49285;49.002;8.390;2023-04-15T10:45:30;10.87;;;6.83;;
1879;SDS011;49285;49.002;8.390;2023-04-15T10:47:58;7.97;;;7.13;;
1879;SDS011;49285;49.002;8.390;2023-04-15T10:50:26;10.50;;;7.97;;
1879;SDS011;49285;49.002;8.390;2023-04-15T10:52:54;11.87;;;7.73;;
1879;SDS011;49285;49.002;8.390;2023-04-15T10:55:25;8.37;;;7.50;;
1879;SDS011;49285;49.002;8.390;2023-04-15T10:57:57;11.33;;;7.87;;
1879;SDS011;49285;49.002;8.390;2023-04-15T11:00:25;7.17;;;6.47;;
1879;SDS011;49285;49.002;8.390;2023-04-15T11:05:22;7.50;;;6.70;;
1879;SDS011;49285;49.002;8.390;2023-04-15T11:08:03;9.83;;;6.90;;
1879;SDS011;49285;49.002;8.390;2023-04-15T11:13:04;9.27;;;7.20;;
1879;SDS011;49285;49.002;8.390;2023-04-15T11:18:12;9.70;;;6.70;;
1879;SDS011;49285;49.002;8.390;2023-04-15T11:20:39;12.53;;;7.13;;
1879;SDS011;49285;49.002;8.390;2023-04-15T11:23:06;6.23;;;5.63;;
1879;SDS011;49285;49.002;8.390;2023-04-15T11:25:33;15.43;;;6.13;;
1879;SDS011;49285;49.002;8.390;2023-04-15T11:28:01;8.43;;;5.33;;
1879;SDS011;49285;49.002;8.390;2023-04-15T11:30:27;6.20;;;4.57;;
1879;SDS011;49285;49.002;8.390;2023-04-15T11:32:58;8.93;;;4.90;;
1879;SDS011;49285;49.002;8.390;2023-04-15T11:35:28;5.00;;;4.30;;
1879;SDS011;49285;49.002;8.390;2023-04-15T11:37:54;7.30;;;4.50;;
1879;SDS011;49285;49.002;8.390;2023-04-15T11:40:28;6.70;;;4.17;;
1879;SDS011;49285;49.002;8.390;2023-04-15T11:43:04;8.20;;;4.70;;
1879;SDS011;49285;49.002;8.390;2023-04-15T11:45:31;5.53;;;4.20;;
1879;SDS011;49285;49.002;8.390;2023-04-15T11:48:14;5.80;;;4.80;;
1879;SDS011;49285;49.002;8.390;2023-04-15T11:50:40;5.83;;;4.70;;
1879;SDS011;49285;49.002;8.390;2023-04-15T11:53:10;8.20;;;5.40;;
1879;SDS011;49285;49.002;8.390;2023-04-15T11:55:40;8.40;;;5.10;;
1879;SDS011;49285;49.002;8.390;2023-04-15T12:00:42;6.10;;;4.33;;
1879;SDS011;49285;49.002;8.390;2023-04-15T12:03:21;7.03;;;4.20;;
1879;SDS011;49285;49.002;8.390;2023-04-15T12:06:08;7.97;;;4.10;;
1879;SDS011;49285;49.002;8.390;2023-04-15T12:08:59;6.60;;;4.47;;
1879;SDS011;49285;49.002;8.390;2023-04-15T12:13:52;10.70;;;4.07;;
1879;SDS011;49285;49.002;8.390;2023-04-15T12:16:22;9.07;;;4.20;;
1879;SDS011;49285;49.002;8.390;2023-04-15T12:18:52;8.43;;;4.93;;
1879;SDS011;49285;49.002;8.390;2023-04-15T12:21:20;6.83;;;4.20;;
1879;SDS011;49285;49.002;8.390;2023-04-15T12:26:17;6.70;;;4.77;;
1879;SDS011;49285;49.002;8.390;2023-04-15T12:28:49;8.30;;;4.93;;
1879;SDS011;49285;49.002;8.390;2023-04-15T12:31:27;6.07;;;5.43;;
1879;SDS011;49285;49.002;8.390;2023-04-15T12:33:56;6.43;;;5.00;;
1879;SDS011;49285;49.002;8.390;2023-04-15T12:36:23;6.70;;;5.40;;
1879;SDS011;49285;49.002;8.390;2023-04-15T12:38:49;5.93;;;5.33;;
1879;SDS011;49285;49.002;8.390;2023-04-15T12:41:15;6.27;;;5.03;;
1879;SDS011;49285;49.002;8.390;2023-04-15T12:43:40;5.63;;;5.10;;
1879;SDS011;49285;49.002;8.390;2023-04-15T12:46:08;5.67;;;5.07;;
1879;SDS011;49285;49.002;8.390;2023-04-15T12:48:34;10.27;;;5.33;;
1879;SDS011;49285;49.002;8.390;2023-04-15T12:50:59;6.63;;;4.90;;
1879;SDS011;49285;49.002;8.390;2023-04-15T12:53:25;6.30;;;5.10;;
1879;SDS011;49285;49.002;8.390;2023-04-15T12:55:51;6.13;;;4.87;;
1879;SDS011;49285;49.002;8.390;2023-04-15T12:58:17;5.17;;;4.27;;
1879;SDS011;49285;49.002;8.390;2023-04-15T13:00:42;5.87;;;4.63;;
1879;SDS011;49285;49.002;8.390;2023-04-15T13:03:08;7.50;;;4.40;;
1879;SDS011;49285;49.002;8.390;2023-04-15T13:05:34;7.07;;;5.17;;
1879;SDS011;49285;49.002;8.390;2023-04-15T13:08:01;4.53;;;4.03;;
1879;SDS011;49285;49.002;8.390;2023-04-15T13:10:28;4.27;;;3.80;;
1879;SDS011;49285;49.002;8.390;2023-04-15T13:12:53;7.20;;;4.20;;
1879;SDS011;49285;49.002;8.390;2023-04-15T13:15:20;4.93;;;4.30;;
1879;SDS011;49285;49.002;8.390;2023-04-15T13:17:46;6.70;;;3.80;;
1879;SDS011;49285;49.002;8.390;2023-04-15T13:20:12;6.00;;;4.03;;
1879;SDS011;49285;49.002;8.390;2023-04-15T13:22:38;4.93;;;4.40;;
1879;SDS011;49285;49.002;8.390;2023-04-15T13:25:04;5.63;;;4.80;;
1879;SDS011;49285;49.002;8.390;2023-04-15T13:27:29;5.23;;;4.23;;
1879;SDS011;49285;49.002;8.390;2023-04-15T13:29:55;4.97;;;3.83;;
1879;SDS011;49285;49.002;8.390;2023-04-15T13:32:21;5.93;;;4.20;;
1879;SDS011;49285;49.002;8.390;2023-04-15T13:34:46;6.40;;;5.10;;
1879;SDS011;49285;49.002;8.390;2023-04-15T13:37:12;11.03;;;5.73;;
1879;SDS011;49285;49.002;8.390;2023-04-15T13:39:37;5.83;;;5.23;;
1879;SDS011;49285;49.002;8.390;2023-04-15T13:42:03;5.20;;;4.80;;
1879;SDS011;49285;49.002;8.390;2023-04-15T13:44:29;7.83;;;6.10;;
1879;SDS011;49285;49.002;8.390;2023-04-15T13:46:55;8.17;;;4.87;;
1879;SDS011;49285;49.002;8.390;2023-04-15T13:49:20;6.93;;;4.77;;
1879;SDS011;49285;49.002;8.390;2023-04-15T13:51:46;5.10;;;4.60;;
1879;SDS011;49285;49.002;8.390;2023-04-15T13:54:11;7.03;;;4.87;;
1879;SDS011;49285;49.002;8.390;2023-04-15T13:56:37;6.10;;;5.37;;
1879;SDS011;49285;49.002;8.390;2023-04-15T13:59:02;6.90;;;5.97;;
1879;SDS011;49285;49.002;8.390;2023-04-15T14:01:28;6.73;;;5.27;;
1879;SDS011;49285;49.002;8.390;2023-04-15T14:03:54;8.23;;;5.30;;
1879;SDS011;49285;49.002;8.390;2023-04-15T14:06:20;6.03;;;5.43;;
1879;SDS011;49285;49.002;8.390;2023-04-15T14:08:45;5.50;;;4.80;;
1879;SDS011;49285;49.002;8.390;2023-04-15T14:11:11;6.87;;;5.00;;
1879;SDS011;49285;49.002;8.390;2023-04-15T14:13:37;6.60;;;5.50;;
1879;SDS011;49285;49.002;8.390;2023-04-15T14:16:03;21.80;;;13.20;;
1879;SDS011;49285;49.002;8.390;2023-04-15T14:18:29;11.13;;;5.20;;
1879;SDS011;49285;49.002;8.390;2023-04-15T14:20:54;11.60;;;8.00;;
1879;SDS011;49285;49.002;8.390;2023-04-15T14:23:21;7.10;;;4.50;;
1879;SDS011;49285;49.002;8.390;2023-04-15T14:25:47;9.73;;;6.03;;
1879;SDS011;49285;49.002;8.390;2023-04-15T14:28:14;8.50;;;7.40;;
1879;SDS011;49285;49.002;8.390;2023-04-15T14:30:40;6.57;;;4.77;;
1879;SDS011;49285;49.002;8.390;2023-04-15T14:33:06;7.80;;;4.73;;
1879;SDS011;49285;49.002;8.390;2023-04-15T14:35:31;6.07;;;4.60;;
1879;SDS011;49285;49.002;8.390;2023-04-15T14:37:57;3.63;;;3.33;;
1879;SDS011;49285;49.002;8.390;2023-04-15T14:40:22;4.63;;;3.63;;
1879;SDS011;49285;49.002;8.390;2023-04-15T14:42:48;8.43;;;4.60;;
1879;SDS011;49285;49.002;8.390;2023-04-15T14:45:13;3.73;;;3.23;;
1879;SDS011;49285;49.002;8.390;2023-04-15T14:47:39;3.90;;;3.60;;
1879;SDS011;49285;49.002;8.390;2023-04-15T14:50:05;3.40;;;3.10;;
1879;SDS011;49285;49.002;8.390;2023-04-15T14:52:31;5.50;;;3.53;;
1879;SDS011;49285;49.002;8.390;2023-04-15T14:55:03;4.27;;;3.87;;
1879;SDS011;49285;49.002;8.390;2023-04-15T14:57:32;4.23;;;3.57;;
1879;SDS011;49285;49.002;8.390;2023-04-15T14:59:58;5.47;;;4.63;;
1879;SDS011;49285;49.002;8.390;2023-04-15T15:02:23;3.93;;;3.40;;
1879;SDS011;49285;49.002;8.390;2023-04-15T15:04:49;4.50;;;3.43;;
1879;SDS011;49285;49.002;8.390;2023-04-15T15:07:15;3.40;;;2.87;;
1879;SDS011;49285;49.002;8.390;2023-04-15T15:09:40;5.10;;;4.00;;